Time;durP1;ratioP1;P1;durP2;ratioP2;P2;SDS_P1;SDS_P2;PMS_P1;PMS_P2;Temp;Humidity;BMP_temperature;BMP_pressure;BME280_temperature;BME280_humidity;BME280_pressure;Samples;Min_cycle;Max_cycle;Signal;HPM_P1;HPM_P2
2022/07/09 00:02:06;;;;;;;;;;;;;;;;;;4958342;28;7137;-85
2022/07/09 00:04:31;;;;;;;;;;;;;;;;;;4958380;28;7248;-86
2022/07/09 00:06:58;;;;;;;;;;;;;;;;;;4958402;28;8751;-86
2022/07/09 00:09:23;;;;;;;;;;;;;;;;;;4958041;28;7115;-86
2022/07/09 00:11:50;;;;;;;;;;;;;;;;;;4958179;28;7126;-86
2022/07/09 00:14:15;;;;;;;;;;;;;;;;;;4957767;28;8736;-86
2022/07/09 00:16:41;;;;;;;;;;;;;;;;;;4958226;28;8280;-84
2022/07/09 00:19:06;;;;;;;;;;;;;;;;;;4958257;28;8443;-86
2022/07/09 00:21:32;;;;;;;;;;;;;;;;;;4958116;28;8427;-86
2022/07/09 00:23:57;;;;;;;;;;;;;;;;;;4957627;28;7000;-85
2022/07/09 00:26:23;;;;;;;;;;;;;;;;;;4958132;28;8302;-86
2022/07/09 00:28:48;;;;;;;;;;;;;;;;;;4960004;28;8583;-85
2022/07/09 00:31:14;;;;;;;;;;;;;;;;;;4961619;28;6999;-86
2022/07/09 00:33:39;;;;;;;;;;;;;;;;;;4960959;28;7063;-85
2022/07/09 00:36:05;;;;;;;;;;;;;;;;;;4961134;28;7007;-85
2022/07/09 00:38:30;;;;;;;;;;;;;;;;;;4961287;28;7166;-85
2022/07/09 00:40:56;;;;;;;;;;;;;;;;;;4961637;28;8381;-86
2022/07/09 00:43:23;;;;;;;;;;;;;;;;;;4961052;28;7165;-86
2022/07/09 00:45:49;;;;;;;;;;;;;;;;;;4961203;28;7019;-85
2022/07/09 00:48:15;;;;;;;;;;;;;;;;;;4977694;28;8419;-86
2022/07/09 00:50:42;;;;;;;;;;;;;;;;;;4977360;28;8677;-85
2022/07/09 00:53:10;;;;;;;;;;;;;;;;;;4978069;28;8323;-85
2022/07/09 00:55:37;;;;;;;;;;;;;;;;;;4977356;28;7022;-86
2022/07/09 00:58:04;;;;;;;;;;;;;;;;;;4977353;28;8704;-86
2022/07/09 01:00:29;;;;;;;;;;;;;;;;;;4977275;28;7146;-86
2022/07/09 01:02:55;;;;;;;;;;;;;;;;;;4977682;28;6815;-84
2022/07/09 01:05:21;;;;;;;;;;;;;;;;;;4977245;28;7203;-85
2022/07/09 01:07:46;;;;;;;;;;;;;;;;;;4977262;28;8576;-82
2022/07/09 01:10:12;;;;;;;;;;;;;;;;;;4977001;28;8330;-85
2022/07/09 01:12:38;;;;;;;;;;;;;;;;;;4976881;28;8620;-85
2022/07/09 01:15:05;;;;;;;;;;;;;;;;;;4977027;28;8440;-86
2022/07/09 01:17:38;;;;;;;;;;;;;;;;;;4977172;28;7050;-85
2022/07/09 01:20:04;;;;;;;;;;;;;;;;;;4977243;28;7123;-86
2022/07/09 01:22:30;;;;;;;;;;;;;;;;;;4977656;28;8487;-85
2022/07/09 01:24:56;;;;;;;;;;;;;;;;;;4977081;28;8500;-85
2022/07/09 01:27:22;;;;;;;;;;;;;;;;;;4976794;28;7177;-85
2022/07/09 01:29:49;;;;;;;;;;;;;;;;;;4976699;28;8442;-85
2022/07/09 01:32:15;;;;;;;;;;;;;;;;;;4976958;28;8353;-86
2022/07/09 01:34:41;;;;;;;;;;;;;;;;;;4976635;28;8418;-86
2022/07/09 01:37:06;;;;;;;;;;;;;;;;;;4976643;28;8467;-86
2022/07/09 01:39:32;;;;;;;;;;;;;;;;;;4976071;28;8394;-86
2022/07/09 01:41:58;;;;;;;;;;;;;;;;;;4976818;28;8762;-86
2022/07/09 01:44:23;;;;;;;;;;;;;;;;;;4976888;28;7162;-86
2022/07/09 01:46:49;;;;;;;;;;;;;;;;;;4960847;28;7150;-86
2022/07/09 01:49:14;;;;;;;;;;;;;;;;;;4960321;28;8605;-86
2022/07/09 01:51:40;;;;;;;;;;;;;;;;;;4960237;28;8580;-86
2022/07/09 01:54:06;;;;;;;;;;;;;;;;;;4960806;28;8450;-85
2022/07/09 01:56:32;;;;;;;;;;;;;;;;;;4960209;28;8744;-86
2022/07/09 01:58:58;;;;;;;;;;;;;;;;;;4959940;28;7035;-85
2022/07/09 02:01:23;;;;;;;;;;;;;;;;;;4960778;28;8740;-85
2022/07/09 02:03:49;;;;;;;;;;;;;;;;;;4960007;28;9338;-86
2022/07/09 02:06:14;;;;;;;;;;;;;;;;;;4960043;28;8425;-86
2022/07/09 02:08:40;;;;;;;;;;;;;;;;;;4960498;28;7399;-85
2022/07/09 02:11:05;;;;;;;;;;;;;;;;;;4960207;28;8765;-85
2022/07/09 02:13:31;;;;;;;;;;;;;;;;;;4959863;28;7031;-86
2022/07/09 02:15:56;;;;;;;;;;;;;;;;;;4960124;28;7616;-85
2022/07/09 02:18:22;;;;;;;;;;;;;;;;;;4959660;28;6987;-86
2022/07/09 02:20:47;;;;;;;;;;;;;;;;;;4959885;28;8577;-85
2022/07/09 02:23:13;;;;;;;;;;;;;;;;;;4959861;28;7178;-85
2022/07/09 02:25:38;;;;;;;;;;;;;;;;;;4959616;28;9498;-85
2022/07/09 02:28:04;;;;;;;;;;;;;;;;;;4959545;28;7475;-85
2022/07/09 02:30:30;;;;;;;;;;;;;;;;;;4959559;28;9330;-85
2022/07/09 02:32:55;;;;;;;;;;;;;;;;;;4959590;28;8705;-85
2022/07/09 02:35:21;;;;;;;;;;;;;;;;;;4960356;28;8882;-85
2022/07/09 02:37:46;;;;;;;;;;;;;;;;;;4959394;28;7151;-85
2022/07/09 02:40:14;;;;;;;;;;;;;;;;;;4960323;28;8416;-85
2022/07/09 02:42:39;;;;;;;;;;;;;;;;;;4959250;28;7038;-85
2022/07/09 02:45:05;;;;;;;;;;;;;;;;;;4959276;28;8349;-86
2022/07/09 02:47:31;;;;;;;;;;;;;;;;;;4975983;28;8519;-86
2022/07/09 02:49:56;;;;;;;;;;;;;;;;;;4975352;28;8301;-87
2022/07/09 02:52:22;;;;;;;;;;;;;;;;;;4974252;28;8666;-86
2022/07/09 02:54:47;;;;;;;;;;;;;;;;;;4975105;28;8425;-86
2022/07/09 02:57:13;;;;;;;;;;;;;;;;;;4975192;28;8413;-86
2022/07/09 02:59:38;;;;;;;;;;;;;;;;;;4975363;28;6828;-84
2022/07/09 03:02:19;;;;;;;;;;;;;;;;;;4975085;28;7002;-87
2022/07/09 03:04:44;;;;;;;;;;;;;;;;;;4975442;28;7166;-85
2022/07/09 03:07:10;;;;;;;;;;;;;;;;;;4975038;28;8368;-86
2022/07/09 03:09:35;;;;;;;;;;;;;;;;;;4974956;28;7101;-86
2022/07/09 03:12:01;;;;;;;;;;;;;;;;;;4974799;28;8260;-86
2022/07/09 03:14:27;;;;;;;;;;;;;;;;;;4958779;28;6984;-85
2022/07/09 03:16:52;;;;;;;;;;;;;;;;;;4975306;28;8680;-86
2022/07/09 03:19:19;;;;;;;;;;;;;;;;;;4974579;28;7022;-86
2022/07/09 03:21:44;;;;;;;;;;;;;;;;;;4974845;28;7039;-86
2022/07/09 03:24:10;;;;;;;;;;;;;;;;;;4974757;28;8254;-86
2022/07/09 03:26:36;;;;;;;;;;;;;;;;;;4975255;28;8466;-86
2022/07/09 03:29:02;;;;;;;;;;;;;;;;;;4974569;28;8333;-87
2022/07/09 03:31:28;;;;;;;;;;;;;;;;;;4974751;28;8357;-86
2022/07/09 03:33:53;;;;;;;;;;;;;;;;;;4974870;28;8542;-86
2022/07/09 03:36:19;;;;;;;;;;;;;;;;;;4959237;28;8362;-86
2022/07/09 03:38:44;;;;;;;;;;;;;;;;;;4974749;28;6832;-86
2022/07/09 03:41:10;;;;;;;;;;;;;;;;;;4974565;28;8445;-86
2022/07/09 03:43:36;;;;;;;;;;;;;;;;;;4974421;28;7039;-84
2022/07/09 03:46:01;;;;;;;;;;;;;;;;;;4974607;28;7022;-86
2022/07/09 03:48:27;;;;;;;;;;;;;;;;;;4958947;28;7190;-88
2022/07/09 03:50:52;;;;;;;;;;;;;;;;;;4959615;28;7192;-86
2022/07/09 03:53:19;;;;;;;;;;;;;;;;;;4959565;28;8282;-88
2022/07/09 03:55:44;;;;;;;;;;;;;;;;;;4958210;28;7086;-87
2022/07/09 03:58:10;;;;;;;;;;;;;;;;;;4958727;28;8390;-84
2022/07/09 04:00:36;;;;;;;;;;;;;;;;;;4958680;28;8769;-87
2022/07/09 04:03:01;;;;;;;;;;;;;;;;;;4960117;28;8342;-86
2022/07/09 04:05:27;;;;;;;;;;;;;;;;;;4961947;28;8446;-86
2022/07/09 04:07:52;;;;;;;;;;;;;;;;;;4961832;28;8276;-83
2022/07/09 04:10:18;;;;;;;;;;;;;;;;;;4962351;28;8687;-86
2022/07/09 04:12:43;;;;;;;;;;;;;;;;;;4961876;28;8743;-86
2022/07/09 04:15:10;;;;;;;;;;;;;;;;;;4962076;28;8440;-86
2022/07/09 04:17:35;;;;;;;;;;;;;;;;;;4961825;28;7359;-87
2022/07/09 04:20:01;;;;;;;;;;;;;;;;;;4962352;28;6799;-86
2022/07/09 04:22:27;;;;;;;;;;;;;;;;;;4961740;28;8887;-86
2022/07/09 04:24:52;;;;;;;;;;;;;;;;;;4961832;28;7011;-86
2022/07/09 04:27:17;;;;;;;;;;;;;;;;;;4961918;28;7002;-87
2022/07/09 04:29:43;;;;;;;;;;;;;;;;;;4962262;28;8390;-86
2022/07/09 04:32:09;;;;;;;;;;;;;;;;;;4962086;28;7152;-86
2022/07/09 04:34:34;;;;;;;;;;;;;;;;;;4966517;28;8378;-87
2022/07/09 04:37:00;;;;;;;;;;;;;;;;;;4970566;28;7228;-86
2022/07/09 04:39:25;;;;;;;;;;;;;;;;;;4968678;28;8397;-86
2022/07/09 04:41:51;;;;;;;;;;;;;;;;;;4971503;28;8453;-86
2022/07/09 04:44:16;;;;;;;;;;;;;;;;;;4977451;28;8418;-86
2022/07/09 04:46:43;;;;;;;;;;;;;;;;;;4968903;28;8410;-86
2022/07/09 04:49:09;;;;;;;;;;;;;;;;;;4974706;28;7374;-87
2022/07/09 04:51:34;;;;;;;;;;;;;;;;;;4968973;28;7056;-87
2022/07/09 04:54:00;;;;;;;;;;;;;;;;;;4976810;28;8395;-86
2022/07/09 04:56:25;;;;;;;;;;;;;;;;;;4967157;28;8447;-86
2022/07/09 04:58:54;;;;;;;;;;;;;;;;;;4966583;28;7219;-87
2022/07/09 05:01:20;;;;;;;;;;;;;;;;;;4965132;28;8531;-87
2022/07/09 05:03:46;;;;;;;;;;;;;;;;;;4968113;28;8364;-86
2022/07/09 05:06:13;;;;;;;;;;;;;;;;;;4976198;28;7127;-85
2022/07/09 05:08:39;;;;;;;;;;;;;;;;;;4957599;28;8359;-87
2022/07/09 05:11:05;;;;;;;;;;;;;;;;;;4974336;28;6804;-86
2022/07/09 05:13:30;;;;;;;;;;;;;;;;;;4976089;28;8363;-87
2022/07/09 05:15:56;;;;;;;;;;;;;;;;;;4974709;28;7214;-85
2022/07/09 05:18:21;;;;;;;;;;;;;;;;;;4975535;28;7206;-85
2022/07/09 05:20:46;;;;;;;;;;;;;;;;;;4967722;28;8198;-88
2022/07/09 05:23:12;;;;;;;;;;;;;;;;;;4975166;28;7094;-86
2022/07/09 05:25:37;;;;;;;;;;;;;;;;;;4965937;28;8596;-86
2022/07/09 05:28:03;;;;;;;;;;;;;;;;;;4966884;28;6842;-86
2022/07/09 05:30:29;;;;;;;;;;;;;;;;;;4974439;28;8493;-83
2022/07/09 05:32:54;;;;;;;;;;;;;;;;;;4967840;28;8748;-86
2022/07/09 05:35:19;;;;;;;;;;;;;;;;;;4967004;28;8287;-85
2022/07/09 05:37:45;;;;;;;;;;;;;;;;;;4971774;28;8329;-87
2022/07/09 05:40:11;;;;;;;;;;;;;;;;;;4974385;28;8410;-85
2022/07/09 05:42:37;;;;;;;;;;;;;;;;;;4961837;28;6853;-85
2022/07/09 05:45:03;;;;;;;;;;;;;;;;;;4974463;28;8426;-87
2022/07/09 05:47:28;;;;;;;;;;;;;;;;;;4975019;28;8338;-87
2022/07/09 05:49:54;;;;;;;;;;;;;;;;;;4962820;28;7024;-87
2022/07/09 05:52:19;;;;;;;;;;;;;;;;;;4975818;28;7055;-87
2022/07/09 05:54:44;;;;;;;;;;;;;;;;;;4967889;28;8772;-86
2022/07/09 05:57:10;;;;;;;;;;;;;;;;;;4973410;28;8414;-87
2022/07/09 05:59:36;;;;;;;;;;;;;;;;;;4967013;28;8404;-85
2022/07/09 06:02:02;;;;;;;;;;;;;;;;;;4931186;28;11918;-86
2022/07/09 06:04:28;;;;;;;;;;;;;;;;;;4958986;28;8416;-85
2022/07/09 06:06:55;;;;;;;;;;;;;;;;;;4976111;28;7099;-86
2022/07/09 06:09:20;;;;;;;;;;;;;;;;;;4976136;28;7153;-85
2022/07/09 06:11:46;;;;;;;;;;;;;;;;;;4975837;28;7029;-84
2022/07/09 06:14:11;;;;;;;;;;;;;;;;;;4975858;28;8432;-85
2022/07/09 06:16:37;;;;;;;;;;;;;;;;;;4975812;28;8461;-85
2022/07/09 06:19:02;;;;;;;;;;;;;;;;;;4975576;28;8286;-84
2022/07/09 06:21:28;;;;;;;;;;;;;;;;;;4975870;28;7165;-85
2022/07/09 06:23:54;;;;;;;;;;;;;;;;;;4975635;28;7037;-85
2022/07/09 06:26:19;;;;;;;;;;;;;;;;;;4975570;28;8405;-85
2022/07/09 06:28:46;;;;;;;;;;;;;;;;;;4975606;28;7036;-85
2022/07/09 06:31:12;;;;;;;;;;;;;;;;;;4975459;28;7153;-86
2022/07/09 06:33:37;;;;;;;;;;;;;;;;;;4975471;28;8578;-85
2022/07/09 06:36:03;;;;;;;;;;;;;;;;;;4975677;28;8398;-85
2022/07/09 06:38:29;;;;;;;;;;;;;;;;;;4975629;28;8498;-85
2022/07/09 06:40:55;;;;;;;;;;;;;;;;;;4975745;28;7015;-85
2022/07/09 06:43:21;;;;;;;;;;;;;;;;;;4975355;28;7160;-85
2022/07/09 06:45:47;;;;;;;;;;;;;;;;;;4976322;28;7115;-86
2022/07/09 06:48:13;;;;;;;;;;;;;;;;;;4975547;28;8474;-85
2022/07/09 06:50:39;;;;;;;;;;;;;;;;;;4975325;28;8768;-86
2022/07/09 06:53:04;;;;;;;;;;;;;;;;;;4976662;28;7137;-84
2022/07/09 06:55:30;;;;;;;;;;;;;;;;;;4975405;28;8818;-86
2022/07/09 06:57:57;;;;;;;;;;;;;;;;;;4975805;28;8670;-86
2022/07/09 07:00:23;;;;;;;;;;;;;;;;;;4976369;28;7062;-86
2022/07/09 07:02:49;;;;;;;;;;;;;;;;;;4975283;28;8476;-86
2022/07/09 07:05:15;;;;;;;;;;;;;;;;;;4975223;28;8461;-86
2022/07/09 07:07:41;;;;;;;;;;;;;;;;;;4975162;28;8415;-86
2022/07/09 07:10:08;;;;;;;;;;;;;;;;;;4975207;28;8403;-86
2022/07/09 07:12:34;;;;;;;;;;;;;;;;;;4973337;28;7171;-83
2022/07/09 07:14:59;;;;;;;;;;;;;;;;;;4971994;28;8375;-86
2022/07/09 07:17:28;;;;;;;;;;;;;;;;;;4973789;28;6976;-85
2022/07/09 07:19:53;;;;;;;;;;;;;;;;;;4971064;28;7033;-86
2022/07/09 07:22:19;;;;;;;;;;;;;;;;;;4957264;28;8505;-85
2022/07/09 07:24:44;;;;;;;;;;;;;;;;;;4956503;28;8301;-84
2022/07/09 07:27:10;;;;;;;;;;;;;;;;;;4971075;28;7271;-83
2022/07/09 07:29:35;;;;;;;;;;;;;;;;;;4957433;28;8403;-85
2022/07/09 07:32:01;;;;;;;;;;;;;;;;;;4955895;28;6842;-86
2022/07/09 07:34:26;;;;;;;;;;;;;;;;;;4972325;28;7020;-83
2022/07/09 07:36:52;;;;;;;;;;;;;;;;;;4955522;28;8499;-85
2022/07/09 07:39:21;;;;;;;;;;;;;;;;;;4972952;28;7042;-85
2022/07/09 07:41:47;;;;;;;;;;;;;;;;;;4973276;28;8326;-84
2022/07/09 07:44:12;;;;;;;;;;;;;;;;;;4972884;28;7195;-84
2022/07/09 07:46:38;;;;;;;;;;;;;;;;;;4975337;28;6824;-85
2022/07/09 07:49:03;;;;;;;;;;;;;;;;;;4974669;28;7132;-85
2022/07/09 07:51:29;;;;;;;;;;;;;;;;;;4974433;28;8288;-85
2022/07/09 07:53:54;;;;;;;;;;;;;;;;;;4974449;28;8710;-85
2022/07/09 07:56:20;;;;;;;;;;;;;;;;;;4974576;28;8931;-85
2022/07/09 07:58:45;;;;;;;;;;;;;;;;;;4974886;28;8767;-84
2022/07/09 08:01:11;;;;;;;;;;;;;;;;;;4975160;28;8721;-78
2022/07/09 08:03:37;;;;;;;;;;;;;;;;;;4974335;28;8444;-84
2022/07/09 08:06:02;;;;;;;;;;;;;;;;;;4974437;28;7049;-85
2022/07/09 08:08:28;;;;;;;;;;;;;;;;;;4974263;28;8484;-85
2022/07/09 08:10:53;;;;;;;;;;;;;;;;;;4974396;28;8338;-85
2022/07/09 08:13:19;;;;;;;;;;;;;;;;;;4974339;28;8309;-75
2022/07/09 08:15:45;;;;;;;;;;;;;;;;;;4974467;28;7045;-85
2022/07/09 08:18:12;;;;;;;;;;;;;;;;;;4974430;28;8428;-85
2022/07/09 08:20:39;;;;;;;;;;;;;;;;;;4974601;28;7078;-85
2022/07/09 08:23:05;;;;;;;;;;;;;;;;;;4974527;28;7053;-84
2022/07/09 08:25:31;;;;;;;;;;;;;;;;;;4974790;28;8471;-84
2022/07/09 08:27:56;;;;;;;;;;;;;;;;;;4973433;28;8381;-82
2022/07/09 08:30:21;;;;;;;;;;;;;;;;;;4990518;28;7239;-83
2022/07/09 08:32:48;;;;;;;;;;;;;;;;;;4992283;28;7143;-85
2022/07/09 08:35:13;;;;;;;;;;;;;;;;;;4992050;28;8407;-84
2022/07/09 08:37:38;;;;;;;;;;;;;;;;;;4992830;28;8460;-84
2022/07/09 08:40:04;;;;;;;;;;;;;;;;;;4991799;28;8436;-81
2022/07/09 08:42:31;;;;;;;;;;;;;;;;;;4975750;28;7145;-80
2022/07/09 08:44:57;;;;;;;;;;;;;;;;;;4991632;28;7061;-84
2022/07/09 08:47:25;;;;;;;;;;;;;;;;;;4992032;28;8512;-84
2022/07/09 08:49:55;;;;;;;;;;;;;;;;;;4992346;28;8569;-85
2022/07/09 08:52:21;;;;;;;;;;;;;;;;;;4998680;28;8371;-82
2022/07/09 08:54:47;;;;;;;;;;;;;;;;;;4999503;28;6960;-83
2022/07/09 08:57:14;;;;;;;;;;;;;;;;;;4996014;28;7056;-86
2022/07/09 08:59:39;;;;;;;;;;;;;;;;;;4996747;28;8449;-81
2022/07/09 09:02:06;;;;;;;;;;;;;;;;;;4995854;28;8352;-86
2022/07/09 09:04:34;;;;;;;;;;;;;;;;;;4996881;28;8556;-89
2022/07/09 09:07:11;;;;;;;;;;;;;;;;;;4996051;28;8321;-83
2022/07/09 09:09:36;;;;;;;;;;;;;;;;;;4996257;28;7338;-84
2022/07/09 09:12:02;;;;;;;;;;;;;;;;;;4994791;28;8377;-81
2022/07/09 09:14:29;;;;;;;;;;;;;;;;;;4995108;28;8401;-81
2022/07/09 09:17:03;;;;;;;;;;;;;;;;;;4994985;28;8320;-80
2022/07/09 09:19:29;;;;;;;;;;;;;;;;;;4994282;28;8675;-82
2022/07/09 09:21:54;;;;;;;;;;;;;;;;;;4995683;28;7158;-81
2022/07/09 09:24:25;;;;;;;;;;;;;;;;;;4994974;28;8407;-84
2022/07/09 09:26:50;;;;;;;;;;;;;;;;;;4993548;28;8466;-83
2022/07/09 09:29:16;;;;;;;;;;;;;;;;;;4959210;28;8471;-84
2022/07/09 09:31:44;;;;;;;;;;;;;;;;;;4959110;28;8388;-83
2022/07/09 09:34:10;;;;;;;;;;;;;;;;;;4959424;28;8451;-83
2022/07/09 09:36:36;;;;;;;;;;;;;;;;;;4975769;28;8366;-83
2022/07/09 09:39:09;;;;;;;;;;;;;;;;;;4975286;28;6820;-81
2022/07/09 09:41:34;;;;;;;;;;;;;;;;;;4959038;28;7061;-84
2022/07/09 09:44:04;;;;;;;;;;;;;;;;;;4959538;28;6984;-83
2022/07/09 09:46:32;;;;;;;;;;;;;;;;;;4959419;28;9244;-84
2022/07/09 09:48:58;;;;;;;;;;;;;;;;;;4975382;28;8490;-84
2022/07/09 09:51:27;;;;;;;;;;;;;;;;;;4975007;28;8781;-84
2022/07/09 09:53:53;;;;;;;;;;;;;;;;;;4975597;28;7053;-83
2022/07/09 09:56:20;;;;;;;;;;;;;;;;;;4975079;28;8507;-83
2022/07/09 09:58:46;;;;;;;;;;;;;;;;;;4974992;28;7104;-84
2022/07/09 10:01:12;;;;;;;;;;;;;;;;;;4973913;28;8466;-84
2022/07/09 10:03:39;;;;;;;;;;;;;;;;;;4975094;28;8431;-84
2022/07/09 10:06:04;;;;;;;;;;;;;;;;;;4975537;28;8715;-84
2022/07/09 10:08:30;;;;;;;;;;;;;;;;;;4974999;28;8467;-84
2022/07/09 10:10:55;;;;;;;;;;;;;;;;;;4974881;28;9299;-82
2022/07/09 10:13:21;;;;;;;;;;;;;;;;;;4974567;28;8460;-84
2022/07/09 10:15:51;;;;;;;;;;;;;;;;;;4975306;28;7336;-83
2022/07/09 10:18:18;;;;;;;;;;;;;;;;;;4974743;28;7110;-83
2022/07/09 10:20:44;;;;;;;;;;;;;;;;;;4975824;28;7266;-84
2022/07/09 10:23:20;;;;;;;;;;;;;;;;;;4974320;28;7161;-82
2022/07/09 10:25:46;;;;;;;;;;;;;;;;;;4974682;28;8832;-88
2022/07/09 10:28:16;;;;;;;;;;;;;;;;;;4973915;28;7146;-84
2022/07/09 10:30:42;;;;;;;;;;;;;;;;;;4974973;28;9147;-85
2022/07/09 10:33:08;;;;;;;;;;;;;;;;;;4974155;28;7036;-85
2022/07/09 10:35:47;;;;;;;;;;;;;;;;;;4974668;28;8442;-85
2022/07/09 10:38:14;;;;;;;;;;;;;;;;;;4974554;28;8470;-85
2022/07/09 10:40:41;;;;;;;;;;;;;;;;;;4974751;28;7346;-85
2022/07/09 10:43:07;;;;;;;;;;;;;;;;;;4974188;28;8552;-84
2022/07/09 10:45:36;;;;;;;;;;;;;;;;;;4974359;28;7171;-84
2022/07/09 10:48:03;;;;;;;;;;;;;;;;;;4974462;28;8389;-82
2022/07/09 10:50:30;;;;;;;;;;;;;;;;;;4974787;28;7161;-81
2022/07/09 10:52:57;;;;;;;;;;;;;;;;;;4974194;28;9209;-84
2022/07/09 10:55:27;;;;;;;;;;;;;;;;;;4974185;28;7259;-85
2022/07/09 10:57:53;;;;;;;;;;;;;;;;;;4974338;28;8902;-85
2022/07/09 11:00:24;;;;;;;;;;;;;;;;;;4974592;28;8668;-84
2022/07/09 11:02:55;;;;;;;;;;;;;;;;;;4973990;28;8557;-81
2022/07/09 11:05:21;;;;;;;;;;;;;;;;;;4957923;28;8412;-84
2022/07/09 11:07:57;;;;;;;;;;;;;;;;;;4976129;28;7246;-84
2022/07/09 11:10:25;;;;;;;;;;;;;;;;;;4973722;28;9435;-81
2022/07/09 11:12:51;;;;;;;;;;;;;;;;;;4973391;28;9101;-83
2022/07/09 11:15:21;;;;;;;;;;;;;;;;;;4973899;28;8429;-82
2022/07/09 11:18:18;;;;;;;;;;;;;;;;;;4973652;28;8379;-82
2022/07/09 11:20:45;;;;;;;;;;;;;;;;;;4952614;28;9402;-84
2022/07/09 11:23:16;;;;;;;;;;;;;;;;;;4974146;28;8437;-82
2022/07/09 11:25:46;;;;;;;;;;;;;;;;;;4974204;28;8304;-83
2022/07/09 11:28:19;;;;;;;;;;;;;;;;;;4974190;28;9235;-83
2022/07/09 11:30:44;;;;;;;;;;;;;;;;;;4974220;28;8677;-84
2022/07/09 11:33:13;;;;;;;;;;;;;;;;;;4973573;28;8697;-82
2022/07/09 11:35:39;;;;;;;;;;;;;;;;;;4974062;28;8494;-83
2022/07/09 11:38:06;;;;;;;;;;;;;;;;;;4974034;28;8479;-83
2022/07/09 11:40:32;;;;;;;;;;;;;;;;;;4973617;28;8483;-85
2022/07/09 11:42:58;;;;;;;;;;;;;;;;;;4974082;28;8423;-84
2022/07/09 11:45:28;;;;;;;;;;;;;;;;;;4969875;28;9527;-84
2022/07/09 11:48:03;;;;;;;;;;;;;;;;;;4974665;28;7195;-85
2022/07/09 11:50:28;;;;;;;;;;;;;;;;;;4990217;28;8406;-83
2022/07/09 11:52:54;;;;;;;;;;;;;;;;;;4990093;28;7363;-84
2022/07/09 11:55:21;;;;;;;;;;;;;;;;;;4989125;28;9435;-83
2022/07/09 11:57:51;;;;;;;;;;;;;;;;;;4957557;28;8389;-84
2022/07/09 12:00:21;;;;;;;;;;;;;;;;;;4957862;28;8404;-83
2022/07/09 12:02:47;;;;;;;;;;;;;;;;;;4955808;28;8413;-84
2022/07/09 12:05:13;;;;;;;;;;;;;;;;;;4981552;28;8539;-84
2022/07/09 12:07:39;;;;;;;;;;;;;;;;;;4973572;28;8730;-82
2022/07/09 12:10:09;;;;;;;;;;;;;;;;;;4973558;28;8403;-83
2022/07/09 12:12:35;;;;;;;;;;;;;;;;;;4973149;28;8431;-84
2022/07/09 12:15:03;;;;;;;;;;;;;;;;;;4974885;28;8380;-83
2022/07/09 12:17:30;;;;;;;;;;;;;;;;;;4972982;28;8736;-83
2022/07/09 12:19:55;;;;;;;;;;;;;;;;;;4973306;28;8438;-84
2022/07/09 12:22:23;;;;;;;;;;;;;;;;;;4970663;28;8399;-83
2022/07/09 12:24:49;;;;;;;;;;;;;;;;;;4967985;28;9172;-83
2022/07/09 12:27:14;;;;;;;;;;;;;;;;;;4966722;28;7160;-83
2022/07/09 12:29:41;;;;;;;;;;;;;;;;;;4978517;28;7074;-83
2022/07/09 12:32:06;;;;;;;;;;;;;;;;;;4976564;28;8430;-84
2022/07/09 12:34:31;;;;;;;;;;;;;;;;;;4976666;28;7025;-83
2022/07/09 12:36:57;;;;;;;;;;;;;;;;;;4968075;28;8408;-84
2022/07/09 12:39:22;;;;;;;;;;;;;;;;;;4973521;28;8416;-83
2022/07/09 12:41:48;;;;;;;;;;;;;;;;;;4977403;28;9070;-83
2022/07/09 12:44:13;;;;;;;;;;;;;;;;;;4977983;28;8497;-84
2022/07/09 12:46:39;;;;;;;;;;;;;;;;;;4973211;28;8620;-83
2022/07/09 12:49:05;;;;;;;;;;;;;;;;;;4975131;28;7195;-83
2022/07/09 12:51:30;;;;;;;;;;;;;;;;;;4978915;28;8429;-83
2022/07/09 12:53:56;;;;;;;;;;;;;;;;;;4959700;28;8417;-83
2022/07/09 12:56:21;;;;;;;;;;;;;;;;;;4976986;28;8395;-83
2022/07/09 12:58:47;;;;;;;;;;;;;;;;;;4976426;28;8493;-83
2022/07/09 13:01:12;;;;;;;;;;;;;;;;;;4976055;28;8889;-86
2022/07/09 13:03:38;;;;;;;;;;;;;;;;;;4976443;28;8531;-83
2022/07/09 13:06:03;;;;;;;;;;;;;;;;;;4976644;28;8619;-84
2022/07/09 13:08:29;;;;;;;;;;;;;;;;;;4975712;28;8369;-85
2022/07/09 13:10:54;;;;;;;;;;;;;;;;;;4976441;28;8404;-83
2022/07/09 13:13:19;;;;;;;;;;;;;;;;;;4976038;28;7097;-85
2022/07/09 13:15:45;;;;;;;;;;;;;;;;;;4975899;28;8411;-84
2022/07/09 13:18:11;;;;;;;;;;;;;;;;;;4975968;28;8408;-83
2022/07/09 13:20:37;;;;;;;;;;;;;;;;;;4976292;28;8402;-84
2022/07/09 13:23:04;;;;;;;;;;;;;;;;;;4976248;28;7158;-84
2022/07/09 13:25:29;;;;;;;;;;;;;;;;;;4959955;28;8736;-84
2022/07/09 13:27:55;;;;;;;;;;;;;;;;;;4959366;28;8382;-84
2022/07/09 13:30:23;;;;;;;;;;;;;;;;;;4965647;28;8488;-84
2022/07/09 13:32:48;;;;;;;;;;;;;;;;;;4975304;28;8512;-83
2022/07/09 13:35:14;;;;;;;;;;;;;;;;;;4973994;28;8679;-71
2022/07/09 13:37:40;;;;;;;;;;;;;;;;;;4972233;28;8438;-73
2022/07/09 13:40:05;;;;;;;;;;;;;;;;;;4972700;28;7052;-70
2022/07/09 13:42:31;;;;;;;;;;;;;;;;;;4972225;28;8326;-73
2022/07/09 13:44:56;;;;;;;;;;;;;;;;;;4971551;28;8409;-73
2022/07/09 13:47:22;;;;;;;;;;;;;;;;;;4972613;28;8406;-75
2022/07/09 13:49:47;;;;;;;;;;;;;;;;;;4972141;28;7741;-73
2022/07/09 13:52:13;;;;;;;;;;;;;;;;;;4972396;28;6827;-81
2022/07/09 13:54:38;;;;;;;;;;;;;;;;;;4972107;28;8493;-81
2022/07/09 13:57:04;;;;;;;;;;;;;;;;;;4972184;28;8751;-75
2022/07/09 13:59:29;;;;;;;;;;;;;;;;;;4972054;28;8410;-81
2022/07/09 14:01:56;;;;;;;;;;;;;;;;;;4971835;28;7354;-81
2022/07/09 14:04:22;;;;;;;;;;;;;;;;;;4971475;28;8424;-82
2022/07/09 14:06:49;;;;;;;;;;;;;;;;;;4971055;28;7217;-80
2022/07/09 14:09:18;;;;;;;;;;;;;;;;;;4970966;28;8714;-81
2022/07/09 14:11:44;;;;;;;;;;;;;;;;;;4972068;28;9101;-80
2022/07/09 14:14:10;;;;;;;;;;;;;;;;;;4973155;28;8321;-76
2022/07/09 14:16:36;;;;;;;;;;;;;;;;;;4958669;28;8386;-86
2022/07/09 14:19:01;;;;;;;;;;;;;;;;;;4974842;28;8402;-79
2022/07/09 14:21:27;;;;;;;;;;;;;;;;;;4974655;28;8712;-82
2022/07/09 14:23:54;;;;;;;;;;;;;;;;;;4958164;28;7302;-82
2022/07/09 14:26:19;;;;;;;;;;;;;;;;;;4958738;28;8780;-81
2022/07/09 14:28:45;;;;;;;;;;;;;;;;;;4959099;28;8377;-80
2022/07/09 14:31:12;;;;;;;;;;;;;;;;;;4975777;28;8652;-82
2022/07/09 14:33:37;;;;;;;;;;;;;;;;;;4989627;28;8436;-82
2022/07/09 14:36:03;;;;;;;;;;;;;;;;;;4975545;28;8757;-83
2022/07/09 14:38:28;;;;;;;;;;;;;;;;;;4974479;28;8507;-83
2022/07/09 14:40:54;;;;;;;;;;;;;;;;;;4958177;28;8769;-80
2022/07/09 14:43:19;;;;;;;;;;;;;;;;;;4958179;28;7127;-82
2022/07/09 14:45:45;;;;;;;;;;;;;;;;;;4974352;28;7181;-80
2022/07/09 14:48:11;;;;;;;;;;;;;;;;;;4974455;28;7110;-82
2022/07/09 14:50:36;;;;;;;;;;;;;;;;;;4973686;28;7279;-81
2022/07/09 14:53:02;;;;;;;;;;;;;;;;;;4973990;28;8689;-82
2022/07/09 14:55:28;;;;;;;;;;;;;;;;;;4973833;28;7754;-81
2022/07/09 14:57:54;;;;;;;;;;;;;;;;;;4972937;28;8303;-79
2022/07/09 15:00:19;;;;;;;;;;;;;;;;;;4973762;28;8840;-81
2022/07/09 15:02:45;;;;;;;;;;;;;;;;;;4973959;28;8510;-82
2022/07/09 15:05:11;;;;;;;;;;;;;;;;;;4973945;28;8427;-81
2022/07/09 15:07:36;;;;;;;;;;;;;;;;;;4972256;28;7247;-82
2022/07/09 15:10:03;;;;;;;;;;;;;;;;;;4973799;28;8432;-82
2022/07/09 15:12:29;;;;;;;;;;;;;;;;;;4957903;28;7325;-82
2022/07/09 15:14:54;;;;;;;;;;;;;;;;;;4956856;28;7171;-81
2022/07/09 15:17:20;;;;;;;;;;;;;;;;;;4974765;28;8415;-82
2022/07/09 15:19:45;;;;;;;;;;;;;;;;;;4973864;28;7009;-82
2022/07/09 15:22:11;;;;;;;;;;;;;;;;;;4972944;28;7162;-83
2022/07/09 15:24:36;;;;;;;;;;;;;;;;;;4973123;28;7163;-85
2022/07/09 15:27:02;;;;;;;;;;;;;;;;;;4770986;28;12296;-87
2022/07/09 15:29:27;;;;;;;;;;;;;;;;;;4952655;28;7167;-87
2022/07/09 15:31:52;;;;;;;;;;;;;;;;;;4974062;28;8533;-85
2022/07/09 15:34:18;;;;;;;;;;;;;;;;;;4971386;28;8272;-85
2022/07/09 15:36:43;;;;;;;;;;;;;;;;;;4954448;28;8395;-87
2022/07/09 15:39:09;;;;;;;;;;;;;;;;;;4965185;28;7048;-85
2022/07/09 15:41:34;;;;;;;;;;;;;;;;;;4992725;28;7044;-88
2022/07/09 15:44:04;;;;;;;;;;;;;;;;;;4977763;28;8387;-86
2022/07/09 15:46:33;;;;;;;;;;;;;;;;;;4992879;28;9103;-83
2022/07/09 15:48:59;;;;;;;;;;;;;;;;;;4993651;28;7216;-87
2022/07/09 15:51:25;;;;;;;;;;;;;;;;;;4995943;28;7272;-83
2022/07/09 15:53:50;;;;;;;;;;;;;;;;;;4993216;28;8589;-87
2022/07/09 15:56:17;;;;;;;;;;;;;;;;;;4994709;28;8398;-88
2022/07/09 15:58:46;;;;;;;;;;;;;;;;;;4994256;28;8402;-87
2022/07/09 16:01:13;;;;;;;;;;;;;;;;;;4997562;28;8388;-87
2022/07/09 16:03:39;;;;;;;;;;;;;;;;;;4997311;28;7151;-86
2022/07/09 16:06:05;;;;;;;;;;;;;;;;;;4998369;28;8737;-86
2022/07/09 16:08:33;;;;;;;;;;;;;;;;;;4998399;28;8607;-89
2022/07/09 16:12:49;;;;;;;;;;;;;;;;;;4997815;28;8794;-88
2022/07/09 16:13:44;;;;;;;;;;;;;;;;;;4997274;28;6971;-84
2022/07/09 16:16:09;;;;;;;;;;;;;;;;;;4997172;28;7395;-87
2022/07/09 16:18:35;;;;;;;;;;;;;;;;;;4997497;28;8382;-85
2022/07/09 16:21:01;;;;;;;;;;;;;;;;;;4996585;28;8430;-86
2022/07/09 16:23:26;;;;;;;;;;;;;;;;;;4996556;28;7031;-87
2022/07/09 16:25:51;;;;;;;;;;;;;;;;;;4997565;28;8398;-87
2022/07/09 16:28:17;;;;;;;;;;;;;;;;;;4996360;28;8454;-87
2022/07/09 16:30:42;;;;;;;;;;;;;;;;;;5003188;28;8706;-87
2022/07/09 16:35:59;;;;;;;;;;;;;;;;;;4979210;28;7001;-88
2022/07/09 16:38:25;;;;;;;;;;;;;;;;;;4978516;28;7010;-87
2022/07/09 16:40:51;;;;;;;;;;;;;;;;;;4977381;28;8689;-87
2022/07/09 16:43:16;;;;;;;;;;;;;;;;;;4976098;28;7795;-88
2022/07/09 16:45:42;;;;;;;;;;;;;;;;;;4975576;28;8425;-89
2022/07/09 16:48:07;;;;;;;;;;;;;;;;;;4976340;28;7092;-89
2022/07/09 16:50:33;;;;;;;;;;;;;;;;;;4976157;28;8409;-88
2022/07/09 16:52:59;;;;;;;;;;;;;;;;;;4961944;28;7123;-84
2022/07/09 16:55:25;;;;;;;;;;;;;;;;;;4977557;28;8381;-88
2022/07/09 16:57:51;;;;;;;;;;;;;;;;;;4978265;28;7082;-88
2022/07/09 17:00:16;;;;;;;;;;;;;;;;;;4976692;28;7092;-85